sensor_id;sensor_type;location;lat;lon;timestamp;P1;durP1;ratioP1;P2;durP2;ratioP2
16775;SDS011;8505;49.456;8.164;2022-12-24T00:01:05;13.43;;;2.40;;
16775;SDS011;8505;49.456;8.164;2022-12-24T00:03:33;13.25;;;2.40;;
16775;SDS011;8505;49.456;8.164;2022-12-24T00:06:03;9.43;;;2.10;;
16775;SDS011;8505;49.456;8.164;2022-12-24T00:08:31;13.97;;;2.20;;
16775;SDS011;8505;49.456;8.164;2022-12-24T00:10:58;13.00;;;2.47;;
16775;SDS011;8505;49.456;8.164;2022-12-24T00:13:26;10.57;;;2.20;;
16775;SDS011;8505;49.456;8.164;2022-12-24T00:15:54;13.75;;;2.40;;
16775;SDS011;8505;49.456;8.164;2022-12-24T00:18:23;12.52;;;2.50;;
16775;SDS011;8505;49.456;8.164;2022-12-24T00:20:50;17.80;;;2.58;;
16775;SDS011;8505;49.456;8.164;2022-12-24T00:23:18;9.93;;;1.77;;
16775;SDS011;8505;49.456;8.164;2022-12-24T00:25:46;13.23;;;2.50;;
16775;SDS011;8505;49.456;8.164;2022-12-24T00:28:14;11.32;;;2.10;;
16775;SDS011;8505;49.456;8.164;2022-12-24T00:30:43;15.00;;;2.42;;
16775;SDS011;8505;49.456;8.164;2022-12-24T00:33:11;11.98;;;2.70;;
16775;SDS011;8505;49.456;8.164;2022-12-24T00:35:40;11.55;;;2.28;;
16775;SDS011;8505;49.456;8.164;2022-12-24T00:38:07;10.93;;;2.10;;
16775;SDS011;8505;49.456;8.164;2022-12-24T00:40:35;14.00;;;2.40;;
16775;SDS011;8505;49.456;8.164;2022-12-24T00:43:03;15.00;;;2.45;;
16775;SDS011;8505;49.456;8.164;2022-12-24T00:45:30;12.73;;;2.40;;
16775;SDS011;8505;49.456;8.164;2022-12-24T00:47:58;12.38;;;2.50;;
16775;SDS011;8505;49.456;8.164;2022-12-24T00:50:25;12.60;;;2.22;;
16775;SDS011;8505;49.456;8.164;2022-12-24T00:52:54;12.77;;;2.50;;
16775;SDS011;8505;49.456;8.164;2022-12-24T00:55:22;11.88;;;2.50;;
16775;SDS011;8505;49.456;8.164;2022-12-24T00:57:49;14.13;;;2.35;;
16775;SDS011;8505;49.456;8.164;2022-12-24T01:00:17;13.38;;;2.25;;
16775;SDS011;8505;49.456;8.164;2022-12-24T01:02:46;13.20;;;2.33;;
16775;SDS011;8505;49.456;8.164;2022-12-24T01:05:14;11.32;;;2.38;;
16775;SDS011;8505;49.456;8.164;2022-12-24T01:07:41;14.98;;;2.70;;
16775;SDS011;8505;49.456;8.164;2022-12-24T01:10:12;11.63;;;2.28;;
16775;SDS011;8505;49.456;8.164;2022-12-24T01:12:41;13.87;;;2.70;;
16775;SDS011;8505;49.456;8.164;2022-12-24T01:15:10;11.63;;;2.53;;
16775;SDS011;8505;49.456;8.164;2022-12-24T01:17:39;16.95;;;3.13;;
16775;SDS011;8505;49.456;8.164;2022-12-24T01:20:09;13.80;;;2.63;;
16775;SDS011;8505;49.456;8.164;2022-12-24T01:22:39;13.18;;;2.47;;
16775;SDS011;8505;49.456;8.164;2022-12-24T01:25:07;11.50;;;2.55;;
16775;SDS011;8505;49.456;8.164;2022-12-24T01:27:37;13.07;;;2.80;;
16775;SDS011;8505;49.456;8.164;2022-12-24T01:30:05;10.48;;;2.35;;
16775;SDS011;8505;49.456;8.164;2022-12-24T01:32:35;15.00;;;2.65;;
16775;SDS011;8505;49.456;8.164;2022-12-24T01:35:03;15.38;;;2.60;;
16775;SDS011;8505;49.456;8.164;2022-12-24T01:37:31;14.38;;;2.60;;
16775;SDS011;8505;49.456;8.164;2022-12-24T01:39:59;12.15;;;2.45;;
16775;SDS011;8505;49.456;8.164;2022-12-24T01:42:44;14.50;;;2.60;;
16775;SDS011;8505;49.456;8.164;2022-12-24T01:45:35;14.05;;;2.63;;
16775;SDS011;8505;49.456;8.164;2022-12-24T01:48:11;9.15;;;2.28;;
16775;SDS011;8505;49.456;8.164;2022-12-24T01:50:42;13.43;;;2.70;;
16775;SDS011;8505;49.456;8.164;2022-12-24T01:53:10;15.98;;;2.92;;
16775;SDS011;8505;49.456;8.164;2022-12-24T01:55:41;13.00;;;2.45;;
16775;SDS011;8505;49.456;8.164;2022-12-24T01:58:12;13.52;;;2.60;;
16775;SDS011;8505;49.456;8.164;2022-12-24T02:00:41;17.42;;;2.63;;
16775;SDS011;8505;49.456;8.164;2022-12-24T02:03:09;14.10;;;2.70;;
16775;SDS011;8505;49.456;8.164;2022-12-24T02:05:39;17.08;;;2.80;;
16775;SDS011;8505;49.456;8.164;2022-12-24T02:08:13;10.93;;;2.30;;
16775;SDS011;8505;49.456;8.164;2022-12-24T02:10:41;15.70;;;2.90;;
16775;SDS011;8505;49.456;8.164;2022-12-24T02:13:09;15.55;;;2.33;;
16775;SDS011;8505;49.456;8.164;2022-12-24T02:15:42;13.48;;;2.20;;
16775;SDS011;8505;49.456;8.164;2022-12-24T02:18:31;10.35;;;2.40;;
16775;SDS011;8505;49.456;8.164;2022-12-24T02:21:14;13.50;;;2.60;;
16775;SDS011;8505;49.456;8.164;2022-12-24T02:24:08;17.77;;;2.60;;
16775;SDS011;8505;49.456;8.164;2022-12-24T02:27:07;16.08;;;2.65;;
16775;SDS011;8505;49.456;8.164;2022-12-24T02:32:45;14.15;;;2.42;;
16775;SDS011;8505;49.456;8.164;2022-12-24T02:35:24;11.55;;;2.60;;
16775;SDS011;8505;49.456;8.164;2022-12-24T02:37:58;13.65;;;2.63;;
16775;SDS011;8505;49.456;8.164;2022-12-24T02:40:31;16.02;;;2.50;;
16775;SDS011;8505;49.456;8.164;2022-12-24T02:43:03;13.52;;;2.85;;
16775;SDS011;8505;49.456;8.164;2022-12-24T02:45:37;15.48;;;2.35;;
16775;SDS011;8505;49.456;8.164;2022-12-24T02:48:08;12.63;;;2.35;;
16775;SDS011;8505;49.456;8.164;2022-12-24T02:50:39;14.95;;;2.60;;
16775;SDS011;8505;49.456;8.164;2022-12-24T02:53:08;16.83;;;2.72;;
16775;SDS011;8505;49.456;8.164;2022-12-24T02:55:38;15.25;;;2.80;;
16775;SDS011;8505;49.456;8.164;2022-12-24T02:58:17;11.73;;;2.38;;
16775;SDS011;8505;49.456;8.164;2022-12-24T03:01:04;12.82;;;2.67;;
16775;SDS011;8505;49.456;8.164;2022-12-24T03:03:48;12.85;;;2.65;;
16775;SDS011;8505;49.456;8.164;2022-12-24T03:06:29;15.38;;;2.88;;
16775;SDS011;8505;49.456;8.164;2022-12-24T03:09:04;16.92;;;2.72;;
16775;SDS011;8505;49.456;8.164;2022-12-24T03:11:35;13.10;;;2.53;;
16775;SDS011;8505;49.456;8.164;2022-12-24T03:14:06;14.30;;;2.88;;
16775;SDS011;8505;49.456;8.164;2022-12-24T03:16:35;15.75;;;2.80;;
16775;SDS011;8505;49.456;8.164;2022-12-24T03:19:03;15.30;;;2.92;;
16775;SDS011;8505;49.456;8.164;2022-12-24T03:21:32;11.73;;;2.50;;
16775;SDS011;8505;49.456;8.164;2022-12-24T03:24:02;13.63;;;2.92;;
16775;SDS011;8505;49.456;8.164;2022-12-24T03:26:30;14.77;;;2.70;;
16775;SDS011;8505;49.456;8.164;2022-12-24T03:28:59;15.77;;;2.80;;
16775;SDS011;8505;49.456;8.164;2022-12-24T03:31:40;12.57;;;2.60;;
16775;SDS011;8505;49.456;8.164;2022-12-24T03:34:09;12.07;;;2.55;;
16775;SDS011;8505;49.456;8.164;2022-12-24T03:36:37;16.30;;;2.85;;
16775;SDS011;8505;49.456;8.164;2022-12-24T03:39:05;20.30;;;3.67;;
16775;SDS011;8505;49.456;8.164;2022-12-24T03:41:33;17.77;;;4.03;;
16775;SDS011;8505;49.456;8.164;2022-12-24T03:44:01;19.15;;;3.90;;
16775;SDS011;8505;49.456;8.164;2022-12-24T03:46:29;16.33;;;3.40;;
16775;SDS011;8505;49.456;8.164;2022-12-24T03:48:58;17.83;;;3.70;;
16775;SDS011;8505;49.456;8.164;2022-12-24T03:51:26;17.48;;;3.10;;
16775;SDS011;8505;49.456;8.164;2022-12-24T03:53:55;17.20;;;3.08;;
16775;SDS011;8505;49.456;8.164;2022-12-24T03:56:23;17.35;;;3.42;;
16775;SDS011;8505;49.456;8.164;2022-12-24T03:58:52;16.15;;;2.92;;
16775;SDS011;8505;49.456;8.164;2022-12-24T04:01:19;21.23;;;3.33;;
16775;SDS011;8505;49.456;8.164;2022-12-24T04:03:47;17.45;;;3.03;;
16775;SDS011;8505;49.456;8.164;2022-12-24T04:06:16;20.13;;;3.30;;
16775;SDS011;8505;49.456;8.164;2022-12-24T04:08:44;17.35;;;3.40;;
16775;SDS011;8505;49.456;8.164;2022-12-24T04:11:13;18.80;;;3.28;;
16775;SDS011;8505;49.456;8.164;2022-12-24T04:13:41;21.73;;;3.58;;
16775;SDS011;8505;49.456;8.164;2022-12-24T04:16:09;19.98;;;3.35;;
16775;SDS011;8505;49.456;8.164;2022-12-24T04:18:39;19.42;;;3.75;;
16775;SDS011;8505;49.456;8.164;2022-12-24T04:21:07;22.27;;;3.67;;
16775;SDS011;8505;49.456;8.164;2022-12-24T04:23:37;21.48;;;3.63;;
16775;SDS011;8505;49.456;8.164;2022-12-24T04:26:08;20.05;;;3.78;;
16775;SDS011;8505;49.456;8.164;2022-12-24T04:28:37;17.70;;;3.47;;
16775;SDS011;8505;49.456;8.164;2022-12-24T04:31:06;17.63;;;2.75;;
16775;SDS011;8505;49.456;8.164;2022-12-24T04:33:35;17.58;;;3.20;;
16775;SDS011;8505;49.456;8.164;2022-12-24T04:36:04;19.67;;;3.60;;
16775;SDS011;8505;49.456;8.164;2022-12-24T04:38:33;18.38;;;3.38;;
16775;SDS011;8505;49.456;8.164;2022-12-24T04:41:03;17.15;;;3.45;;
16775;SDS011;8505;49.456;8.164;2022-12-24T04:43:33;20.50;;;3.08;;
16775;SDS011;8505;49.456;8.164;2022-12-24T04:46:04;19.40;;;3.40;;
16775;SDS011;8505;49.456;8.164;2022-12-24T04:48:32;21.80;;;3.83;;
16775;SDS011;8505;49.456;8.164;2022-12-24T04:51:00;16.55;;;3.40;;
16775;SDS011;8505;49.456;8.164;2022-12-24T04:53:29;23.35;;;3.45;;
16775;SDS011;8505;49.456;8.164;2022-12-24T04:55:57;20.20;;;3.42;;
16775;SDS011;8505;49.456;8.164;2022-12-24T04:58:26;23.57;;;3.90;;
16775;SDS011;8505;49.456;8.164;2022-12-24T05:00:55;21.52;;;3.30;;
16775;SDS011;8505;49.456;8.164;2022-12-24T05:03:23;17.23;;;3.40;;
16775;SDS011;8505;49.456;8.164;2022-12-24T05:05:50;20.52;;;3.58;;
16775;SDS011;8505;49.456;8.164;2022-12-24T05:08:26;20.47;;;3.70;;
16775;SDS011;8505;49.456;8.164;2022-12-24T05:10:54;23.75;;;3.80;;
16775;SDS011;8505;49.456;8.164;2022-12-24T05:13:23;24.95;;;4.15;;
16775;SDS011;8505;49.456;8.164;2022-12-24T05:16:03;23.40;;;3.95;;
16775;SDS011;8505;49.456;8.164;2022-12-24T05:18:31;25.02;;;3.90;;
16775;SDS011;8505;49.456;8.164;2022-12-24T05:21:01;24.50;;;3.90;;
16775;SDS011;8505;49.456;8.164;2022-12-24T05:23:29;23.35;;;3.90;;
16775;SDS011;8505;49.456;8.164;2022-12-24T05:26:14;23.27;;;3.95;;
16775;SDS011;8505;49.456;8.164;2022-12-24T05:28:49;23.80;;;4.27;;
16775;SDS011;8505;49.456;8.164;2022-12-24T05:31:20;25.13;;;3.97;;
16775;SDS011;8505;49.456;8.164;2022-12-24T05:33:49;23.33;;;4.00;;
16775;SDS011;8505;49.456;8.164;2022-12-24T05:36:16;20.37;;;3.70;;
16775;SDS011;8505;49.456;8.164;2022-12-24T05:38:44;29.15;;;4.20;;
16775;SDS011;8505;49.456;8.164;2022-12-24T05:41:11;22.67;;;3.80;;
16775;SDS011;8505;49.456;8.164;2022-12-24T05:43:39;21.80;;;4.23;;
16775;SDS011;8505;49.456;8.164;2022-12-24T05:46:08;20.15;;;3.85;;
16775;SDS011;8505;49.456;8.164;2022-12-24T05:48:38;24.77;;;4.30;;
16775;SDS011;8505;49.456;8.164;2022-12-24T05:51:06;24.17;;;3.88;;
16775;SDS011;8505;49.456;8.164;2022-12-24T05:53:35;23.60;;;3.97;;
16775;SDS011;8505;49.456;8.164;2022-12-24T05:56:04;24.30;;;3.97;;
16775;SDS011;8505;49.456;8.164;2022-12-24T05:58:32;22.67;;;3.40;;
16775;SDS011;8505;49.456;8.164;2022-12-24T06:01:01;24.25;;;3.80;;
16775;SDS011;8505;49.456;8.164;2022-12-24T06:03:30;22.27;;;4.07;;
16775;SDS011;8505;49.456;8.164;2022-12-24T06:06:01;24.95;;;4.00;;
16775;SDS011;8505;49.456;8.164;2022-12-24T06:08:31;24.00;;;3.90;;
16775;SDS011;8505;49.456;8.164;2022-12-24T06:11:00;26.98;;;4.32;;
16775;SDS011;8505;49.456;8.164;2022-12-24T06:13:29;19.55;;;3.85;;
16775;SDS011;8505;49.456;8.164;2022-12-24T06:15:58;21.97;;;3.83;;
16775;SDS011;8505;49.456;8.164;2022-12-24T06:18:27;24.73;;;4.25;;
16775;SDS011;8505;49.456;8.164;2022-12-24T06:20:56;23.20;;;4.10;;
16775;SDS011;8505;49.456;8.164;2022-12-24T06:23:27;19.13;;;3.20;;
16775;SDS011;8505;49.456;8.164;2022-12-24T06:25:56;24.00;;;3.92;;
16775;SDS011;8505;49.456;8.164;2022-12-24T06:28:26;24.20;;;3.95;;
16775;SDS011;8505;49.456;8.164;2022-12-24T06:30:54;21.77;;;4.07;;
16775;SDS011;8505;49.456;8.164;2022-12-24T06:33:28;25.93;;;4.23;;
16775;SDS011;8505;49.456;8.164;2022-12-24T06:35:56;23.03;;;4.13;;
16775;SDS011;8505;49.456;8.164;2022-12-24T06:38:23;23.33;;;4.03;;
16775;SDS011;8505;49.456;8.164;2022-12-24T06:40:53;22.30;;;4.10;;
16775;SDS011;8505;49.456;8.164;2022-12-24T06:43:21;26.38;;;4.82;;
16775;SDS011;8505;49.456;8.164;2022-12-24T06:45:49;25.05;;;4.10;;
16775;SDS011;8505;49.456;8.164;2022-12-24T06:48:16;24.55;;;4.38;;
16775;SDS011;8505;49.456;8.164;2022-12-24T06:50:44;22.13;;;4.30;;
16775;SDS011;8505;49.456;8.164;2022-12-24T06:53:12;22.83;;;3.63;;
16775;SDS011;8505;49.456;8.164;2022-12-24T06:55:39;28.63;;;4.45;;
16775;SDS011;8505;49.456;8.164;2022-12-24T06:58:08;25.90;;;4.03;;
16775;SDS011;8505;49.456;8.164;2022-12-24T07:00:37;21.25;;;3.83;;
16775;SDS011;8505;49.456;8.164;2022-12-24T07:03:04;28.95;;;4.57;;
16775;SDS011;8505;49.456;8.164;2022-12-24T07:05:33;24.75;;;4.13;;
16775;SDS011;8505;49.456;8.164;2022-12-24T07:08:00;23.65;;;3.80;;
16775;SDS011;8505;49.456;8.164;2022-12-24T07:10:28;27.10;;;4.32;;
16775;SDS011;8505;49.456;8.164;2022-12-24T07:12:55;26.73;;;5.00;;
16775;SDS011;8505;49.456;8.164;2022-12-24T07:15:24;26.83;;;4.78;;
16775;SDS011;8505;49.456;8.164;2022-12-24T07:17:52;22.33;;;4.47;;
16775;SDS011;8505;49.456;8.164;2022-12-24T07:20:20;24.98;;;4.15;;
16775;SDS011;8505;49.456;8.164;2022-12-24T07:22:47;25.02;;;4.70;;
16775;SDS011;8505;49.456;8.164;2022-12-24T07:25:15;24.08;;;5.20;;
16775;SDS011;8505;49.456;8.164;2022-12-24T07:27:43;26.02;;;4.55;;
16775;SDS011;8505;49.456;8.164;2022-12-24T07:30:11;24.93;;;4.60;;
16775;SDS011;8505;49.456;8.164;2022-12-24T07:32:40;25.73;;;5.90;;
16775;SDS011;8505;49.456;8.164;2022-12-24T07:35:08;29.47;;;5.80;;
16775;SDS011;8505;49.456;8.164;2022-12-24T07:37:36;27.38;;;6.18;;
16775;SDS011;8505;49.456;8.164;2022-12-24T07:40:04;24.65;;;5.60;;
16775;SDS011;8505;49.456;8.164;2022-12-24T07:42:35;30.65;;;6.63;;
16775;SDS011;8505;49.456;8.164;2022-12-24T07:45:03;29.37;;;6.00;;
16775;SDS011;8505;49.456;8.164;2022-12-24T07:47:31;27.30;;;5.75;;
16775;SDS011;8505;49.456;8.164;2022-12-24T07:50:00;29.00;;;4.80;;
16775;SDS011;8505;49.456;8.164;2022-12-24T07:52:28;28.40;;;5.33;;
16775;SDS011;8505;49.456;8.164;2022-12-24T07:54:55;29.52;;;4.88;;
16775;SDS011;8505;49.456;8.164;2022-12-24T07:57:23;29.60;;;4.83;;
16775;SDS011;8505;49.456;8.164;2022-12-24T07:59:50;24.48;;;4.22;;
16775;SDS011;8505;49.456;8.164;2022-12-24T08:02:18;29.58;;;5.03;;
16775;SDS011;8505;49.456;8.164;2022-12-24T08:04:46;28.08;;;5.03;;
16775;SDS011;8505;49.456;8.164;2022-12-24T08:07:15;25.38;;;4.38;;
16775;SDS011;8505;49.456;8.164;2022-12-24T08:09:43;24.75;;;4.60;;
16775;SDS011;8505;49.456;8.164;2022-12-24T08:12:11;27.90;;;4.50;;
16775;SDS011;8505;49.456;8.164;2022-12-24T08:14:39;29.25;;;4.28;;
16775;SDS011;8505;49.456;8.164;2022-12-24T08:17:06;27.42;;;4.60;;
16775;SDS011;8505;49.456;8.164;2022-12-24T08:19:34;26.07;;;4.20;;
16775;SDS011;8505;49.456;8.164;2022-12-24T08:22:02;27.63;;;4.60;;
16775;SDS011;8505;49.456;8.164;2022-12-24T08:24:31;26.73;;;4.55;;
16775;SDS011;8505;49.456;8.164;2022-12-24T08:26:58;24.85;;;4.05;;
16775;SDS011;8505;49.456;8.164;2022-12-24T08:29:26;22.83;;;4.00;;
16775;SDS011;8505;49.456;8.164;2022-12-24T08:31:54;28.40;;;4.60;;
16775;SDS011;8505;49.456;8.164;2022-12-24T08:34:22;29.45;;;4.97;;
16775;SDS011;8505;49.456;8.164;2022-12-24T08:36:49;30.55;;;5.03;;
16775;SDS011;8505;49.456;8.164;2022-12-24T08:39:17;27.33;;;5.05;;
16775;SDS011;8505;49.456;8.164;2022-12-24T08:41:46;31.13;;;7.30;;
16775;SDS011;8505;49.456;8.164;2022-12-24T08:44:14;28.63;;;4.57;;
16775;SDS011;8505;49.456;8.164;2022-12-24T08:46:41;26.63;;;4.40;;
16775;SDS011;8505;49.456;8.164;2022-12-24T08:49:09;27.83;;;4.63;;
16775;SDS011;8505;49.456;8.164;2022-12-24T08:51:36;25.33;;;4.10;;
16775;SDS011;8505;49.456;8.164;2022-12-24T08:54:04;24.50;;;4.55;;
16775;SDS011;8505;49.456;8.164;2022-12-24T08:56:32;27.87;;;6.10;;
16775;SDS011;8505;49.456;8.164;2022-12-24T08:59:01;30.45;;;5.32;;
16775;SDS011;8505;49.456;8.164;2022-12-24T09:01:29;29.30;;;7.33;;
16775;SDS011;8505;49.456;8.164;2022-12-24T09:03:57;32.05;;;4.85;;
16775;SDS011;8505;49.456;8.164;2022-12-24T09:06:24;31.83;;;8.68;;
16775;SDS011;8505;49.456;8.164;2022-12-24T09:08:52;30.70;;;6.57;;
16775;SDS011;8505;49.456;8.164;2022-12-24T09:11:20;27.67;;;5.95;;
16775;SDS011;8505;49.456;8.164;2022-12-24T09:13:47;27.85;;;5.03;;
16775;SDS011;8505;49.456;8.164;2022-12-24T09:16:16;28.43;;;4.47;;
16775;SDS011;8505;49.456;8.164;2022-12-24T09:18:44;26.17;;;4.57;;
16775;SDS011;8505;49.456;8.164;2022-12-24T09:21:13;27.75;;;4.78;;
16775;SDS011;8505;49.456;8.164;2022-12-24T09:23:43;31.53;;;5.10;;
16775;SDS011;8505;49.456;8.164;2022-12-24T09:26:14;29.73;;;4.63;;
16775;SDS011;8505;49.456;8.164;2022-12-24T09:28:42;26.63;;;4.20;;
16775;SDS011;8505;49.456;8.164;2022-12-24T09:31:10;21.95;;;3.97;;
16775;SDS011;8505;49.456;8.164;2022-12-24T09:33:41;21.58;;;4.25;;
16775;SDS011;8505;49.456;8.164;2022-12-24T09:36:10;29.73;;;4.35;;
16775;SDS011;8505;49.456;8.164;2022-12-24T09:38:38;23.25;;;4.40;;
16775;SDS011;8505;49.456;8.164;2022-12-24T09:41:12;24.75;;;3.97;;
16775;SDS011;8505;49.456;8.164;2022-12-24T09:43:43;22.75;;;3.88;;
16775;SDS011;8505;49.456;8.164;2022-12-24T09:46:15;27.27;;;4.18;;
16775;SDS011;8505;49.456;8.164;2022-12-24T09:48:51;23.10;;;4.43;;
16775;SDS011;8505;49.456;8.164;2022-12-24T09:51:23;30.45;;;4.93;;
16775;SDS011;8505;49.456;8.164;2022-12-24T09:53:56;28.05;;;4.10;;
16775;SDS011;8505;49.456;8.164;2022-12-24T09:56:29;28.20;;;4.25;;
16775;SDS011;8505;49.456;8.164;2022-12-24T09:59:00;27.35;;;4.65;;
16775;SDS011;8505;49.456;8.164;2022-12-24T10:01:29;24.45;;;4.50;;
16775;SDS011;8505;49.456;8.164;2022-12-24T10:04:03;22.58;;;4.07;;
16775;SDS011;8505;49.456;8.164;2022-12-24T10:06:35;21.33;;;4.20;;
16775;SDS011;8505;49.456;8.164;2022-12-24T10:09:09;24.45;;;3.78;;
16775;SDS011;8505;49.456;8.164;2022-12-24T10:11:44;25.10;;;4.20;;
16775;SDS011;8505;49.456;8.164;2022-12-24T10:14:21;27.58;;;4.43;;
16775;SDS011;8505;49.456;8.164;2022-12-24T10:17:03;26.52;;;4.25;;
16775;SDS011;8505;49.456;8.164;2022-12-24T10:19:46;24.75;;;4.15;;
16775;SDS011;8505;49.456;8.164;2022-12-24T10:22:20;27.08;;;4.28;;
16775;SDS011;8505;49.456;8.164;2022-12-24T10:24:56;25.30;;;4.25;;
16775;SDS011;8505;49.456;8.164;2022-12-24T10:27:31;24.92;;;4.03;;
16775;SDS011;8505;49.456;8.164;2022-12-24T10:30:05;27.00;;;5.05;;
16775;SDS011;8505;49.456;8.164;2022-12-24T10:32:42;25.60;;;5.38;;
16775;SDS011;8505;49.456;8.164;2022-12-24T10:35:18;24.87;;;5.03;;
16775;SDS011;8505;49.456;8.164;2022-12-24T10:37:49;27.20;;;4.90;;
16775;SDS011;8505;49.456;8.164;2022-12-24T10:40:24;23.95;;;4.25;;
16775;SDS011;8505;49.456;8.164;2022-12-24T10:42:55;23.08;;;4.30;;
16775;SDS011;8505;49.456;8.164;2022-12-24T10:45:26;21.88;;;4.15;;
16775;SDS011;8505;49.456;8.164;2022-12-24T10:48:04;26.80;;;4.25;;
16775;SDS011;8505;49.456;8.164;2022-12-24T10:50:38;21.52;;;4.10;;
16775;SDS011;8505;49.456;8.164;2022-12-24T10:53:12;25.33;;;4.35;;
16775;SDS011;8505;49.456;8.164;2022-12-24T10:55:45;22.40;;;3.70;;
16775;SDS011;8505;49.456;8.164;2022-12-24T10:58:14;24.25;;;4.30;;
16775;SDS011;8505;49.456;8.164;2022-12-24T11:00:48;22.10;;;4.28;;
16775;SDS011;8505;49.456;8.164;2022-12-24T11:03:20;19.35;;;3.90;;
16775;SDS011;8505;49.456;8.164;2022-12-24T11:06:02;26.70;;;7.30;;
16775;SDS011;8505;49.456;8.164;2022-12-24T11:08:40;22.42;;;4.93;;
16775;SDS011;8505;49.456;8.164;2022-12-24T11:11:10;27.20;;;4.50;;
16775;SDS011;8505;49.456;8.164;2022-12-24T11:13:40;22.48;;;4.15;;
16775;SDS011;8505;49.456;8.164;2022-12-24T11:16:14;21.00;;;3.97;;
16775;SDS011;8505;49.456;8.164;2022-12-24T11:18:46;19.15;;;4.53;;
16775;SDS011;8505;49.456;8.164;2022-12-24T11:21:19;20.10;;;3.75;;
16775;SDS011;8505;49.456;8.164;2022-12-24T11:23:50;23.25;;;5.05;;
16775;SDS011;8505;49.456;8.164;2022-12-24T11:26:21;24.17;;;5.03;;
16775;SDS011;8505;49.456;8.164;2022-12-24T11:29:04;26.63;;;4.40;;
16775;SDS011;8505;49.456;8.164;2022-12-24T11:31:38;22.98;;;4.70;;
16775;SDS011;8505;49.456;8.164;2022-12-24T11:34:22;22.83;;;4.57;;
16775;SDS011;8505;49.456;8.164;2022-12-24T11:36:54;21.23;;;4.25;;
16775;SDS011;8505;49.456;8.164;2022-12-24T11:39:40;21.70;;;4.20;;
16775;SDS011;8505;49.456;8.164;2022-12-24T11:42:21;23.80;;;4.28;;
16775;SDS011;8505;49.456;8.164;2022-12-24T11:44:52;23.55;;;4.40;;
16775;SDS011;8505;49.456;8.164;2022-12-24T11:47:30;24.70;;;4.50;;
16775;SDS011;8505;49.456;8.164;2022-12-24T11:52:58;23.77;;;4.47;;
16775;SDS011;8505;49.456;8.164;2022-12-24T11:55:34;21.67;;;4.50;;
16775;SDS011;8505;49.456;8.164;2022-12-24T11:58:12;19.45;;;3.90;;
16775;SDS011;8505;49.456;8.164;2022-12-24T12:00:46;19.95;;;4.07;;
16775;SDS011;8505;49.456;8.164;2022-12-24T12:03:22;22.17;;;4.47;;
16775;SDS011;8505;49.456;8.164;2022-12-24T12:05:57;23.67;;;4.15;;
16775;SDS011;8505;49.456;8.164;2022-12-24T12:08:28;22.70;;;4.53;;
16775;SDS011;8505;49.456;8.164;2022-12-24T12:10:57;20.52;;;4.30;;
16775;SDS011;8505;49.456;8.164;2022-12-24T12:13:26;19.93;;;4.00;;
16775;SDS011;8505;49.456;8.164;2022-12-24T12:16:04;22.90;;;3.78;;
16775;SDS011;8505;49.456;8.164;2022-12-24T12:18:41;20.63;;;4.00;;
16775;SDS011;8505;49.456;8.164;2022-12-24T12:21:16;24.08;;;4.43;;
16775;SDS011;8505;49.456;8.164;2022-12-24T12:23:48;23.40;;;4.18;;
16775;SDS011;8505;49.456;8.164;2022-12-24T12:26:21;22.55;;;4.20;;
16775;SDS011;8505;49.456;8.164;2022-12-24T12:28:52;25.07;;;4.47;;
16775;SDS011;8505;49.456;8.164;2022-12-24T12:31:23;25.98;;;4.05;;
16775;SDS011;8505;49.456;8.164;2022-12-24T12:33:55;21.33;;;4.70;;
16775;SDS011;8505;49.456;8.164;2022-12-24T12:36:29;21.05;;;4.20;;
16775;SDS011;8505;49.456;8.164;2022-12-24T12:39:01;23.50;;;4.22;;
16775;SDS011;8505;49.456;8.164;2022-12-24T12:41:33;21.02;;;4.15;;
16775;SDS011;8505;49.456;8.164;2022-12-24T12:47:11;26.60;;;6.13;;
16775;SDS011;8505;49.456;8.164;2022-12-24T12:49:56;24.35;;;5.45;;
16775;SDS011;8505;49.456;8.164;2022-12-24T12:52:34;23.27;;;6.82;;
16775;SDS011;8505;49.456;8.164;2022-12-24T12:55:17;25.63;;;6.77;;
16775;SDS011;8505;49.456;8.164;2022-12-24T12:57:55;20.52;;;3.75;;
16775;SDS011;8505;49.456;8.164;2022-12-24T13:00:26;17.98;;;3.65;;
16775;SDS011;8505;49.456;8.164;2022-12-24T13:03:12;15.80;;;3.35;;
16775;SDS011;8505;49.456;8.164;2022-12-24T13:06:10;17.83;;;3.13;;
16775;SDS011;8505;49.456;8.164;2022-12-24T13:09:00;17.77;;;5.20;;
16775;SDS011;8505;49.456;8.164;2022-12-24T13:12:01;20.80;;;5.57;;
16775;SDS011;8505;49.456;8.164;2022-12-24T13:14:53;21.55;;;7.03;;
16775;SDS011;8505;49.456;8.164;2022-12-24T13:20:25;29.52;;;10.43;;
16775;SDS011;8505;49.456;8.164;2022-12-24T13:22:56;25.48;;;7.57;;
16775;SDS011;8505;49.456;8.164;2022-12-24T13:25:29;12.60;;;2.67;;
16775;SDS011;8505;49.456;8.164;2022-12-24T13:28:15;17.63;;;4.80;;
16775;SDS011;8505;49.456;8.164;2022-12-24T13:33:58;15.93;;;4.68;;
16775;SDS011;8505;49.456;8.164;2022-12-24T13:45:42;17.67;;;4.22;;
16775;SDS011;8505;49.456;8.164;2022-12-24T13:48:13;17.13;;;3.70;;
16775;SDS011;8505;49.456;8.164;2022-12-24T13:50:49;37.50;;;12.93;;
16775;SDS011;8505;49.456;8.164;2022-12-24T13:53:20;28.02;;;9.85;;
16775;SDS011;8505;49.456;8.164;2022-12-24T13:55:50;32.30;;;11.13;;
16775;SDS011;8505;49.456;8.164;2022-12-24T13:58:20;20.67;;;5.57;;
16775;SDS011;8505;49.456;8.164;2022-12-24T14:00:54;22.35;;;9.13;;
16775;SDS011;8505;49.456;8.164;2022-12-24T14:03:26;39.47;;;18.23;;
16775;SDS011;8505;49.456;8.164;2022-12-24T14:05:58;26.08;;;8.70;;
16775;SDS011;8505;49.456;8.164;2022-12-24T14:08:36;23.15;;;6.47;;
16775;SDS011;8505;49.456;8.164;2022-12-24T14:11:08;37.63;;;15.32;;
16775;SDS011;8505;49.456;8.164;2022-12-24T14:16:41;24.67;;;6.90;;
16775;SDS011;8505;49.456;8.164;2022-12-24T14:19:13;38.70;;;13.70;;
16775;SDS011;8505;49.456;8.164;2022-12-24T14:21:48;20.03;;;4.13;;
16775;SDS011;8505;49.456;8.164;2022-12-24T14:24:21;19.65;;;4.75;;
16775;SDS011;8505;49.456;8.164;2022-12-24T14:26:52;23.50;;;8.73;;
16775;SDS011;8505;49.456;8.164;2022-12-24T14:29:25;19.35;;;5.55;;
16775;SDS011;8505;49.456;8.164;2022-12-24T14:31:58;25.83;;;5.97;;
16775;SDS011;8505;49.456;8.164;2022-12-24T14:34:29;23.75;;;7.03;;
16775;SDS011;8505;49.456;8.164;2022-12-24T14:36:57;24.83;;;7.63;;
16775;SDS011;8505;49.456;8.164;2022-12-24T14:39:30;19.15;;;5.45;;
16775;SDS011;8505;49.456;8.164;2022-12-24T14:42:03;21.58;;;4.75;;
16775;SDS011;8505;49.456;8.164;2022-12-24T14:44:45;22.23;;;4.43;;
16775;SDS011;8505;49.456;8.164;2022-12-24T14:47:24;18.13;;;4.80;;
16775;SDS011;8505;49.456;8.164;2022-12-24T14:50:03;26.90;;;5.05;;
16775;SDS011;8505;49.456;8.164;2022-12-24T14:52:49;23.52;;;6.93;;
16775;SDS011;8505;49.456;8.164;2022-12-24T14:55:40;21.42;;;5.30;;
16775;SDS011;8505;49.456;8.164;2022-12-24T14:58:26;22.67;;;5.05;;
16775;SDS011;8505;49.456;8.164;2022-12-24T15:00:57;22.80;;;5.32;;
16775;SDS011;8505;49.456;8.164;2022-12-24T15:03:29;21.50;;;4.72;;
16775;SDS011;8505;49.456;8.164;2022-12-24T15:05:59;21.90;;;4.67;;
16775;SDS011;8505;49.456;8.164;2022-12-24T15:08:31;20.90;;;4.72;;
16775;SDS011;8505;49.456;8.164;2022-12-24T15:11:03;19.25;;;4.57;;
16775;SDS011;8505;49.456;8.164;2022-12-24T15:13:33;22.38;;;4.80;;
16775;SDS011;8505;49.456;8.164;2022-12-24T15:16:04;21.48;;;4.80;;
16775;SDS011;8505;49.456;8.164;2022-12-24T15:18:36;23.40;;;4.88;;
16775;SDS011;8505;49.456;8.164;2022-12-24T15:21:14;23.98;;;4.57;;
16775;SDS011;8505;49.456;8.164;2022-12-24T15:23:45;22.42;;;4.82;;
16775;SDS011;8505;49.456;8.164;2022-12-24T15:26:19;27.50;;;5.45;;
16775;SDS011;8505;49.456;8.164;2022-12-24T15:28:50;26.33;;;5.60;;
16775;SDS011;8505;49.456;8.164;2022-12-24T15:31:28;19.58;;;4.88;;
16775;SDS011;8505;49.456;8.164;2022-12-24T15:33:57;28.00;;;9.10;;
16775;SDS011;8505;49.456;8.164;2022-12-24T15:36:26;21.80;;;6.97;;
16775;SDS011;8505;49.456;8.164;2022-12-24T15:38:58;19.23;;;5.53;;
16775;SDS011;8505;49.456;8.164;2022-12-24T15:41:28;27.60;;;5.78;;